createdAt,value
2018-06-08T00:00:24.242Z,99.99
2018-06-08T00:01:24.814Z,99.99
2018-06-08T00:02:25.378Z,99.99
2018-06-08T00:03:25.920Z,99.99
2018-06-08T00:04:26.470Z,99.99
2018-06-08T00:05:27.025Z,99.99
2018-06-08T00:06:27.578Z,99.99
2018-06-08T00:07:28.123Z,99.99
2018-06-08T00:08:28.669Z,99.99
2018-06-08T00:09:29.213Z,99.99
2018-06-08T00:10:29.767Z,99.99
2018-06-08T00:11:30.313Z,99.99
2018-06-08T00:12:30.884Z,99.99
2018-06-08T00:13:31.417Z,99.99
2018-06-08T00:14:31.969Z,99.99
2018-06-08T00:15:32.522Z,99.99
2018-06-08T00:16:33.066Z,99.99
2018-06-08T00:17:33.613Z,99.99
2018-06-08T00:18:34.165Z,99.99
2018-06-08T00:19:34.716Z,99.99
2018-06-08T00:20:35.270Z,99.99
2018-06-08T00:21:35.823Z,99.99
2018-06-08T00:22:36.374Z,99.99
2018-06-08T00:23:36.929Z,99.99
2018-06-08T00:24:37.486Z,99.99
2018-06-08T00:25:38.040Z,99.99
2018-06-08T00:26:38.590Z,99.99
2018-06-08T00:27:39.142Z,99.99
2018-06-08T00:28:39.690Z,99.99
2018-06-08T00:29:40.243Z,99.99
2018-06-08T00:30:40.793Z,99.99
2018-06-08T00:31:41.336Z,99.99
2018-06-08T00:32:41.882Z,99.99
2018-06-08T00:33:42.439Z,99.99
2018-06-08T00:34:42.988Z,99.99
2018-06-08T00:35:43.537Z,99.99
2018-06-08T00:36:44.205Z,99.99
2018-06-08T00:37:44.751Z,99.99
2018-06-08T00:38:45.299Z,99.99
2018-06-08T00:39:45.851Z,99.99
2018-06-08T00:40:46.397Z,99.99
2018-06-08T00:41:46.950Z,99.99
2018-06-08T00:42:47.495Z,99.99
2018-06-08T00:43:48.046Z,99.99
2018-06-08T00:44:48.604Z,99.99
2018-06-08T00:45:49.150Z,99.99
2018-06-08T00:46:49.703Z,99.99
2018-06-08T00:47:50.253Z,99.99
2018-06-08T00:48:50.811Z,99.99
2018-06-08T00:49:51.364Z,99.99
2018-06-08T00:50:51.911Z,99.99
2018-06-08T00:51:52.461Z,99.99
2018-06-08T00:52:53.015Z,99.99
2018-06-08T00:53:53.569Z,99.99
2018-06-08T00:54:54.114Z,99.99
2018-06-08T00:55:54.663Z,99.99
2018-06-08T00:56:55.215Z,99.99
2018-06-08T00:57:55.767Z,99.99
2018-06-08T00:58:56.320Z,99.99
2018-06-08T00:59:56.916Z,99.99
2018-06-08T01:00:57.426Z,99.99
2018-06-08T01:01:57.977Z,99.99
2018-06-08T01:02:58.524Z,99.99
2018-06-08T01:03:59.071Z,99.99
2018-06-08T01:04:59.624Z,99.99
2018-06-08T01:06:00.175Z,99.99
2018-06-08T01:07:00.729Z,99.99
2018-06-08T01:08:01.280Z,99.99
2018-06-08T01:09:01.832Z,99.99
2018-06-08T01:10:02.381Z,99.99
2018-06-08T01:11:02.933Z,99.99
2018-06-08T01:12:03.487Z,99.99
2018-06-08T01:13:04.036Z,99.99
2018-06-08T01:14:04.590Z,99.99
2018-06-08T01:15:05.146Z,99.99
2018-06-08T01:16:05.696Z,99.99
2018-06-08T01:17:06.252Z,99.99
2018-06-08T01:18:06.806Z,99.99
2018-06-08T01:19:07.357Z,99.99
2018-06-08T01:20:07.910Z,99.99
2018-06-08T01:21:08.464Z,99.99
2018-06-08T01:22:09.015Z,99.99
2018-06-08T01:23:09.568Z,99.99
2018-06-08T01:24:10.120Z,99.99
2018-06-08T01:25:10.672Z,99.99
2018-06-08T01:26:11.222Z,99.99
2018-06-08T01:27:11.773Z,99.99
2018-06-08T01:28:12.328Z,99.99
2018-06-08T01:29:12.872Z,99.99
2018-06-08T01:30:13.425Z,99.99
2018-06-08T01:31:13.976Z,99.99
2018-06-08T01:32:14.527Z,99.99
2018-06-08T01:33:15.076Z,99.99
2018-06-08T01:34:15.628Z,99.99
2018-06-08T01:35:16.181Z,99.99
2018-06-08T01:36:16.732Z,99.99
2018-06-08T01:37:17.286Z,99.99
2018-06-08T01:38:17.824Z,99.99
2018-06-08T01:39:18.374Z,99.99
2018-06-08T01:40:18.926Z,99.99
2018-06-08T01:41:19.481Z,99.99
2018-06-08T01:42:20.032Z,99.99
2018-06-08T01:43:20.579Z,99.99
2018-06-08T01:44:21.131Z,99.99
2018-06-08T01:45:21.685Z,99.99
2018-06-08T01:46:22.239Z,99.99
2018-06-08T01:47:22.788Z,99.99
2018-06-08T01:48:23.343Z,99.99
2018-06-08T01:49:23.902Z,99.99
2018-06-08T01:50:24.448Z,99.99
2018-06-08T01:51:24.999Z,99.99
2018-06-08T01:52:25.548Z,99.99
2018-06-08T01:53:26.099Z,99.99
2018-06-08T01:54:26.649Z,99.99
2018-06-08T01:55:27.199Z,99.99
2018-06-08T01:56:27.744Z,99.99
2018-06-08T01:57:28.289Z,99.99
2018-06-08T01:58:28.844Z,99.99
2018-06-08T01:59:29.397Z,99.99
2018-06-08T02:00:29.947Z,99.99
2018-06-08T02:01:30.494Z,99.99
2018-06-08T02:02:31.042Z,99.99
2018-06-08T02:03:31.591Z,99.99
2018-06-08T02:04:32.139Z,99.99
2018-06-08T02:05:32.692Z,99.99
2018-06-08T02:06:33.246Z,99.99
2018-06-08T02:07:33.797Z,99.99
2018-06-08T02:08:34.346Z,99.99
2018-06-08T02:09:34.901Z,99.99
2018-06-08T02:10:35.450Z,99.99
2018-06-08T02:11:36.001Z,99.99
2018-06-08T02:12:36.548Z,99.99
2018-06-08T02:13:37.102Z,99.99
2018-06-08T02:14:37.653Z,99.99
2018-06-08T02:15:38.206Z,99.99
2018-06-08T02:16:38.762Z,99.99
2018-06-08T02:17:39.309Z,99.99
2018-06-08T02:18:39.860Z,99.99
2018-06-08T02:19:40.407Z,99.99
2018-06-08T02:20:40.953Z,99.99
2018-06-08T02:21:41.504Z,99.99
2018-06-08T02:22:42.050Z,99.99
2018-06-08T02:23:42.596Z,99.99
2018-06-08T02:24:43.149Z,99.99
2018-06-08T02:25:43.695Z,99.99
2018-06-08T02:26:44.240Z,99.99
2018-06-08T02:27:44.790Z,99.99
2018-06-08T02:28:45.343Z,99.99
2018-06-08T02:29:45.894Z,99.99
2018-06-08T02:30:46.444Z,99.99
2018-06-08T02:31:46.994Z,99.99
2018-06-08T02:32:47.546Z,99.99
2018-06-08T02:33:48.096Z,99.99
2018-06-08T02:34:48.643Z,99.99
2018-06-08T02:35:49.196Z,99.99
2018-06-08T02:36:49.750Z,99.99
2018-06-08T02:37:50.301Z,99.99
2018-06-08T02:38:50.852Z,99.99
2018-06-08T02:39:51.410Z,99.99
2018-06-08T02:40:51.955Z,99.99
2018-06-08T02:41:52.504Z,99.99
2018-06-08T02:42:53.058Z,99.99
2018-06-08T02:43:53.612Z,99.99
2018-06-08T02:44:54.163Z,99.99
2018-06-08T02:45:54.717Z,99.99
2018-06-08T02:46:55.309Z,99.99
2018-06-08T02:47:55.837Z,99.99
2018-06-08T02:48:56.392Z,99.99
2018-06-08T02:49:56.937Z,99.99
2018-06-08T02:50:57.491Z,99.99
2018-06-08T02:51:58.044Z,99.99
2018-06-08T02:52:58.592Z,99.99
2018-06-08T02:53:59.146Z,99.99
2018-06-08T02:54:59.699Z,99.99
2018-06-08T02:56:00.254Z,99.99
2018-06-08T02:57:00.805Z,99.99
2018-06-08T02:58:01.467Z,99.99
2018-06-08T02:59:02.019Z,99.99
2018-06-08T03:00:02.580Z,99.99
2018-06-08T03:01:03.128Z,99.99
2018-06-08T03:02:03.685Z,99.99
2018-06-08T03:03:04.233Z,99.99
2018-06-08T03:04:04.792Z,99.99
2018-06-08T03:05:05.342Z,99.99
2018-06-08T03:06:05.894Z,99.99
2018-06-08T03:07:06.454Z,99.99
2018-06-08T03:08:07.002Z,99.99
2018-06-08T03:09:07.555Z,99.99
2018-06-08T03:10:08.098Z,99.99
2018-06-08T03:11:08.653Z,99.99
2018-06-08T03:12:09.268Z,99.99
2018-06-08T03:13:09.754Z,99.99
2018-06-08T03:14:10.306Z,99.99
2018-06-08T03:15:10.870Z,99.99
2018-06-08T03:16:11.417Z,99.99
2018-06-08T03:17:11.970Z,99.99
2018-06-08T03:18:12.517Z,99.99
2018-06-08T03:19:13.072Z,99.99
2018-06-08T03:20:13.629Z,99.99
2018-06-08T03:21:14.178Z,99.99
2018-06-08T03:22:14.738Z,99.99
2018-06-08T03:23:15.285Z,99.99
2018-06-08T03:24:15.833Z,99.99
2018-06-08T03:25:16.385Z,99.99
2018-06-08T03:26:16.942Z,99.99
2018-06-08T03:27:17.494Z,99.99
2018-06-08T03:28:18.039Z,99.99
2018-06-08T03:29:18.593Z,99.99
2018-06-08T03:30:19.144Z,99.99
2018-06-08T03:31:19.694Z,99.99
2018-06-08T03:32:20.250Z,99.99
2018-06-08T03:33:20.809Z,99.99
2018-06-08T03:34:21.361Z,99.99
2018-06-08T03:35:21.916Z,99.99
2018-06-08T03:36:22.469Z,99.99
2018-06-08T03:37:23.026Z,99.99
2018-06-08T03:38:23.581Z,99.99
2018-06-08T03:39:24.129Z,99.99
2018-06-08T03:40:24.684Z,99.99
2018-06-08T03:41:25.241Z,99.99
2018-06-08T03:42:25.792Z,99.99
2018-06-08T03:43:26.350Z,99.99
2018-06-08T03:44:26.912Z,99.99
2018-06-08T03:45:27.464Z,99.99
2018-06-08T03:46:28.023Z,99.99
2018-06-08T03:47:28.579Z,99.99
2018-06-08T03:48:29.133Z,99.99
2018-06-08T03:49:29.686Z,99.99
2018-06-08T03:50:30.353Z,99.99
2018-06-08T03:51:30.908Z,99.99
2018-06-08T03:52:31.461Z,99.99
2018-06-08T03:53:32.016Z,99.99
2018-06-08T03:54:32.572Z,99.99
2018-06-08T03:55:33.132Z,99.99
2018-06-08T03:56:33.683Z,99.99
2018-06-08T03:57:34.240Z,99.99
2018-06-08T03:58:34.793Z,99.99
2018-06-08T03:59:35.352Z,99.99
2018-06-08T04:00:35.908Z,99.99
2018-06-08T04:01:36.467Z,99.99
2018-06-08T04:02:37.022Z,99.99
2018-06-08T04:03:37.578Z,99.99
2018-06-08T04:04:38.134Z,99.99
2018-06-08T04:05:38.695Z,99.99
2018-06-08T04:06:39.279Z,99.99
2018-06-08T04:07:39.822Z,99.99
2018-06-08T04:08:40.378Z,99.99
2018-06-08T04:09:40.941Z,99.99
2018-06-08T04:10:41.497Z,99.99
2018-06-08T04:11:42.047Z,99.99
2018-06-08T04:12:42.604Z,99.99
2018-06-08T04:13:43.157Z,99.99
2018-06-08T04:14:43.708Z,99.99
2018-06-08T04:15:44.287Z,99.99
2018-06-08T04:16:44.825Z,99.99
2018-06-08T04:17:45.383Z,99.99
2018-06-08T04:18:45.941Z,99.99
2018-06-08T04:19:46.497Z,99.99
2018-06-08T04:20:47.058Z,99.99
2018-06-08T04:21:47.613Z,99.99
2018-06-08T04:22:48.172Z,99.99
2018-06-08T04:23:48.731Z,99.99
2018-06-08T04:24:49.297Z,99.99
2018-06-08T04:25:49.872Z,99.99
2018-06-08T04:26:50.402Z,99.99
2018-06-08T04:27:50.960Z,99.99
2018-06-08T04:28:51.518Z,99.99
2018-06-08T04:29:52.076Z,99.99
2018-06-08T04:30:52.629Z,99.99
2018-06-08T04:31:53.187Z,99.99
2018-06-08T04:32:53.767Z,99.99
2018-06-08T04:33:54.306Z,99.99
2018-06-08T04:34:54.863Z,99.99
2018-06-08T04:35:55.417Z,99.99
2018-06-08T04:36:55.977Z,99.99
2018-06-08T04:37:56.538Z,99.99
2018-06-08T04:38:57.091Z,99.99
2018-06-08T04:39:57.651Z,99.99
2018-06-08T04:40:58.209Z,99.99
2018-06-08T04:41:58.769Z,99.99
2018-06-08T04:42:59.333Z,99.99
2018-06-08T04:43:59.890Z,99.99
2018-06-08T04:45:00.455Z,99.99
2018-06-08T04:46:01.008Z,99.99
2018-06-08T04:47:01.568Z,99.99
2018-06-08T04:48:02.120Z,99.99
2018-06-08T04:49:02.676Z,99.99
2018-06-08T04:50:03.234Z,99.99
2018-06-08T04:51:03.795Z,99.99
2018-06-08T04:52:04.352Z,99.99
2018-06-08T04:53:04.912Z,99.99
2018-06-08T04:54:05.470Z,99.99
2018-06-08T04:55:06.032Z,99.99
2018-06-08T04:56:06.586Z,99.99
2018-06-08T04:57:07.144Z,99.99
2018-06-08T04:58:07.705Z,99.99
2018-06-08T04:59:08.270Z,99.99
2018-06-08T05:00:08.819Z,99.99
2018-06-08T05:01:09.374Z,99.99
2018-06-08T05:02:09.934Z,99.99
2018-06-08T05:03:10.493Z,99.99
2018-06-08T05:04:11.055Z,99.99
2018-06-08T05:05:11.615Z,99.99
2018-06-08T05:06:12.175Z,99.99
2018-06-08T05:07:12.731Z,99.99
2018-06-08T05:08:13.291Z,99.99
2018-06-08T05:09:13.846Z,99.99
2018-06-08T05:10:14.402Z,99.99
2018-06-08T05:11:14.974Z,99.99
2018-06-08T05:12:15.521Z,99.99
2018-06-08T05:13:16.081Z,99.99
2018-06-08T05:14:16.638Z,99.99
2018-06-08T05:15:17.195Z,99.99
2018-06-08T05:16:17.749Z,99.99
2018-06-08T05:17:18.311Z,99.99
2018-06-08T05:18:18.865Z,99.99
2018-06-08T05:19:19.423Z,99.99
2018-06-08T05:20:19.981Z,99.99
2018-06-08T05:21:20.534Z,99.99
2018-06-08T05:22:21.097Z,99.99
2018-06-08T05:23:21.648Z,99.99
2018-06-08T05:24:22.206Z,99.99
2018-06-08T05:25:22.765Z,99.99
2018-06-08T05:26:23.323Z,99.99
2018-06-08T05:27:23.879Z,99.99
2018-06-08T05:28:24.440Z,99.99
2018-06-08T05:29:24.999Z,99.99
2018-06-08T05:30:25.561Z,99.99
2018-06-08T05:31:26.122Z,99.99
2018-06-08T05:32:26.675Z,99.99
2018-06-08T05:33:27.253Z,99.99
2018-06-08T05:34:27.792Z,99.99
2018-06-08T05:35:28.357Z,99.99
2018-06-08T05:36:28.909Z,99.99
2018-06-08T05:37:29.463Z,99.99
2018-06-08T05:38:30.022Z,99.99
2018-06-08T05:39:30.577Z,99.99
2018-06-08T05:40:31.138Z,99.99
2018-06-08T05:41:31.695Z,99.99
2018-06-08T05:42:32.260Z,99.99
2018-06-08T05:43:32.818Z,99.99
2018-06-08T05:44:33.376Z,99.99
2018-06-08T05:45:33.934Z,99.99
2018-06-08T05:46:34.490Z,99.99
2018-06-08T05:47:35.047Z,99.99
2018-06-08T05:48:35.607Z,99.99
2018-06-08T05:49:36.153Z,99.99
2018-06-08T05:50:36.715Z,99.99
2018-06-08T05:51:37.272Z,99.99
2018-06-08T05:52:37.833Z,99.99
2018-06-08T05:53:38.395Z,99.99
2018-06-08T05:54:38.943Z,99.99
2018-06-08T05:55:39.500Z,99.99
2018-06-08T05:56:40.059Z,99.99
2018-06-08T05:57:40.621Z,99.99
2018-06-08T05:58:41.181Z,99.99
2018-06-08T05:59:41.742Z,99.99
2018-06-08T06:00:42.301Z,99.99
2018-06-08T06:01:42.867Z,99.99
2018-06-08T06:02:43.423Z,99.99
2018-06-08T06:03:43.985Z,99.99
2018-06-08T06:04:44.544Z,99.99
2018-06-08T06:05:45.106Z,99.99
2018-06-08T06:06:45.669Z,99.99
2018-06-08T06:07:46.224Z,99.99
2018-06-08T06:08:46.784Z,99.99
2018-06-08T06:09:47.344Z,99.99
2018-06-08T06:10:47.904Z,99.99
2018-06-08T06:11:48.462Z,99.99
2018-06-08T06:12:49.023Z,99.99
2018-06-08T06:13:49.579Z,99.99
2018-06-08T06:14:50.192Z,99.99
2018-06-08T06:15:50.705Z,99.99
2018-06-08T06:16:51.265Z,99.99
2018-06-08T06:17:51.828Z,99.99
2018-06-08T06:18:52.383Z,99.99
2018-06-08T06:19:52.938Z,99.99
2018-06-08T06:20:53.536Z,99.99
2018-06-08T06:21:54.057Z,99.99
2018-06-08T06:22:54.618Z,99.99
2018-06-08T06:23:55.173Z,99.99
2018-06-08T06:24:55.732Z,99.99
2018-06-08T06:25:56.296Z,99.99
2018-06-08T06:26:56.848Z,99.99
2018-06-08T06:27:57.416Z,99.99
2018-06-08T06:28:57.972Z,99.99
2018-06-08T06:29:58.534Z,99.99
2018-06-08T06:30:59.089Z,99.99
2018-06-08T06:31:59.645Z,99.99
2018-06-08T06:33:00.207Z,99.99
2018-06-08T06:34:00.767Z,99.99
2018-06-08T06:35:01.335Z,99.99
2018-06-08T06:36:01.888Z,99.99
2018-06-08T06:37:02.449Z,99.99
2018-06-08T06:38:03.010Z,99.99
2018-06-08T06:39:03.566Z,99.99
2018-06-08T06:40:04.128Z,99.99
2018-06-08T06:41:04.686Z,99.99
2018-06-08T06:42:05.241Z,99.99
2018-06-08T06:43:05.823Z,99.99
2018-06-08T06:44:06.361Z,99.99
2018-06-08T06:45:06.923Z,99.99
2018-06-08T06:46:07.481Z,99.99
2018-06-08T06:47:08.041Z,99.99
2018-06-08T06:48:08.598Z,99.99
2018-06-08T06:49:09.162Z,99.99
2018-06-08T06:50:09.727Z,99.99
2018-06-08T06:51:10.282Z,99.99
2018-06-08T06:52:10.858Z,99.99
2018-06-08T06:53:11.420Z,99.99
2018-06-08T06:54:11.966Z,99.99
2018-06-08T06:55:12.532Z,99.99
2018-06-08T06:56:13.094Z,99.99
2018-06-08T06:57:13.652Z,99.99
2018-06-08T06:58:14.212Z,99.99
2018-06-08T06:59:14.773Z,99.99
2018-06-08T07:00:15.345Z,99.99
2018-06-08T07:01:15.906Z,99.99
2018-06-08T07:02:16.471Z,99.99
2018-06-08T07:03:17.028Z,99.99
2018-06-08T07:04:17.591Z,99.99
2018-06-08T07:05:18.202Z,99.99
2018-06-08T07:06:18.762Z,99.99
2018-06-08T07:07:19.322Z,99.99
2018-06-08T07:08:19.878Z,99.99
2018-06-08T07:09:20.434Z,99.99
2018-06-08T07:10:20.993Z,99.99
2018-06-08T07:11:21.549Z,99.99
2018-06-08T07:12:22.105Z,99.99
2018-06-08T07:13:22.665Z,99.99
2018-06-08T07:14:23.224Z,99.99
2018-06-08T07:15:23.782Z,99.99
2018-06-08T07:16:24.352Z,99.99
2018-06-08T07:17:24.911Z,99.99
2018-06-08T07:18:25.476Z,99.99
2018-06-08T07:19:26.039Z,99.99
2018-06-08T07:20:26.599Z,99.99
2018-06-08T07:21:27.164Z,99.99
2018-06-08T07:22:27.719Z,99.99
2018-06-08T07:23:28.280Z,99.99
2018-06-08T07:24:28.837Z,99.99
2018-06-08T07:25:29.396Z,99.99
2018-06-08T07:26:29.957Z,99.99
2018-06-08T07:27:30.522Z,99.99
2018-06-08T07:28:31.085Z,99.99
2018-06-08T07:29:31.641Z,99.99
2018-06-08T07:30:32.195Z,99.99
2018-06-08T07:31:32.830Z,99.99
2018-06-08T07:32:33.316Z,99.99
2018-06-08T07:33:33.877Z,99.99
2018-06-08T07:34:34.432Z,99.99
2018-06-08T07:35:34.996Z,99.99
2018-06-08T07:36:35.557Z,99.99
2018-06-08T07:37:36.116Z,99.99
2018-06-08T07:38:36.678Z,99.99
2018-06-08T07:39:37.243Z,99.99
2018-06-08T07:40:37.803Z,99.99
2018-06-08T07:41:38.368Z,99.99
2018-06-08T07:42:38.932Z,99.99
2018-06-08T07:43:39.497Z,99.99
2018-06-08T07:44:40.055Z,99.99
2018-06-08T07:45:40.623Z,99.99
2018-06-08T07:46:41.196Z,99.99
2018-06-08T07:47:41.748Z,99.99
2018-06-08T07:48:42.312Z,99.99
2018-06-08T07:49:42.874Z,99.99
2018-06-08T07:50:43.431Z,99.99
2018-06-08T07:51:43.999Z,99.99
2018-06-08T07:52:44.609Z,99.99
2018-06-08T07:53:45.220Z,99.99
2018-06-08T07:54:45.736Z,99.99
2018-06-08T07:55:46.296Z,99.99
2018-06-08T07:56:46.860Z,99.99
2018-06-08T07:57:47.422Z,99.99
2018-06-08T07:58:47.982Z,99.99
2018-06-08T07:59:48.541Z,99.99
2018-06-08T08:00:49.107Z,99.99
2018-06-08T08:01:49.669Z,99.99
2018-06-08T08:02:50.225Z,99.99
2018-06-08T08:03:50.788Z,99.99
2018-06-08T08:04:51.348Z,99.99
2018-06-08T08:05:51.907Z,99.99
2018-06-08T08:06:52.470Z,99.99
2018-06-08T08:07:53.034Z,99.99
2018-06-08T08:08:53.599Z,99.99
2018-06-08T08:09:54.163Z,99.99
2018-06-08T08:10:54.721Z,99.99
2018-06-08T08:11:55.287Z,99.99
2018-06-08T08:12:55.851Z,99.99
2018-06-08T08:13:56.431Z,99.99
2018-06-08T08:14:56.996Z,99.99
2018-06-08T08:15:57.559Z,99.99
2018-06-08T08:16:58.121Z,99.99
2018-06-08T08:17:58.689Z,99.99
2018-06-08T08:18:59.251Z,99.99
2018-06-08T08:19:59.811Z,99.99
2018-06-08T08:21:00.373Z,99.99
2018-06-08T08:22:00.936Z,99.07
2018-06-08T08:23:01.512Z,98.88
2018-06-08T08:24:02.075Z,98.58
2018-06-08T08:25:02.642Z,98.97
2018-06-08T08:26:03.202Z,99.41
2018-06-08T08:27:03.767Z,97.86
2018-06-08T08:28:04.334Z,97.77
2018-06-08T08:29:04.888Z,97.19
2018-06-08T08:30:05.449Z,96.61
2018-06-08T08:31:06.013Z,95.93
2018-06-08T08:32:06.584Z,96.31
2018-06-08T08:33:07.148Z,96.31
2018-06-08T08:34:07.716Z,97.72
2018-06-08T08:35:08.271Z,97.81
2018-06-08T08:36:08.836Z,98.00
2018-06-08T08:37:09.407Z,98.63
2018-06-08T08:38:09.971Z,98.25
2018-06-08T08:39:10.540Z,97.91
2018-06-08T08:40:11.096Z,98.00
2018-06-08T08:41:11.663Z,98.00
2018-06-08T08:42:12.226Z,97.81
2018-06-08T08:43:12.786Z,97.38
2018-06-08T08:44:13.349Z,97.67
2018-06-08T08:45:13.911Z,97.67
2018-06-08T08:46:14.475Z,97.47
2018-06-08T08:47:15.044Z,97.57
2018-06-08T08:48:15.601Z,97.86
2018-06-08T08:49:16.165Z,97.96
2018-06-08T08:50:16.733Z,97.52
2018-06-08T08:51:17.296Z,97.72
2018-06-08T08:52:17.864Z,97.42
2018-06-08T08:53:18.423Z,97.91
2018-06-08T08:54:18.990Z,98.00
2018-06-08T08:55:19.554Z,98.30
2018-06-08T08:56:20.120Z,97.91
2018-06-08T08:57:20.685Z,98.05
2018-06-08T08:58:21.247Z,98.15
2018-06-08T08:59:21.815Z,99.40
2018-06-08T09:00:22.379Z,99.88
2018-06-08T09:01:22.938Z,99.99
2018-06-08T09:02:23.499Z,99.99
2018-06-08T09:03:24.053Z,99.99
2018-06-08T09:04:24.611Z,99.99
2018-06-08T09:05:25.170Z,99.99
2018-06-08T09:06:25.727Z,99.88
2018-06-08T09:07:26.288Z,99.98
2018-06-08T09:08:26.855Z,99.40
2018-06-08T09:09:27.416Z,99.60
2018-06-08T09:10:27.981Z,99.55
2018-06-08T09:11:28.570Z,98.97
2018-06-08T09:12:29.100Z,99.60
2018-06-08T09:13:29.662Z,99.55
2018-06-08T09:14:30.224Z,99.07
2018-06-08T09:15:30.789Z,99.02
2018-06-08T09:16:31.353Z,99.36
2018-06-08T09:17:31.948Z,98.20
2018-06-08T09:18:32.483Z,98.39
2018-06-08T09:19:33.047Z,98.68
2018-06-08T09:20:33.610Z,98.00
2018-06-08T09:21:34.168Z,97.72
2018-06-08T09:22:34.736Z,97.86
2018-06-08T09:23:35.301Z,96.80
2018-06-08T09:24:35.863Z,97.28
2018-06-08T09:25:36.430Z,97.19
2018-06-08T09:26:36.994Z,96.51
2018-06-08T09:27:37.554Z,96.51
2018-06-08T09:28:38.120Z,96.61
2018-06-08T09:29:38.674Z,95.93
2018-06-08T09:30:39.236Z,96.31
2018-06-08T09:31:39.800Z,96.41
2018-06-08T09:32:40.360Z,96.70
2018-06-08T09:33:40.914Z,96.99
2018-06-08T09:34:41.473Z,96.99
2018-06-08T09:35:42.036Z,97.19
2018-06-08T09:36:42.599Z,97.77
2018-06-08T09:37:43.158Z,97.57
2018-06-08T09:38:43.714Z,97.77
2018-06-08T09:39:44.275Z,97.14
2018-06-08T09:40:44.831Z,97.52
2018-06-08T09:41:45.390Z,97.62
2018-06-08T09:42:45.959Z,97.67
2018-06-08T09:43:46.524Z,98.05
2018-06-08T09:44:47.088Z,97.52
2018-06-08T09:45:47.645Z,96.99
2018-06-08T09:46:48.209Z,96.94
2018-06-08T09:47:48.767Z,97.24
2018-06-08T09:48:49.339Z,97.62
2018-06-08T09:49:49.901Z,97.77
2018-06-08T09:50:50.453Z,97.47
2018-06-08T09:51:51.011Z,97.91
2018-06-08T09:52:51.574Z,97.62
2018-06-08T09:53:52.136Z,97.62
2018-06-08T09:54:52.725Z,98.00
2018-06-08T09:55:53.474Z,98.30
2018-06-08T09:56:54.038Z,98.00
2018-06-08T09:57:54.595Z,97.81
2018-06-08T09:58:55.163Z,97.62
2018-06-08T09:59:55.726Z,98.10
2018-06-08T10:00:56.285Z,98.49
2018-06-08T10:01:56.852Z,98.83
2018-06-08T10:02:57.412Z,99.31
2018-06-08T10:03:57.977Z,99.99
2018-06-08T10:04:58.534Z,99.99
2018-06-08T10:05:59.094Z,99.99
2018-06-08T10:06:59.649Z,99.99
2018-06-08T10:08:00.215Z,99.99
2018-06-08T10:09:00.783Z,99.99
2018-06-08T10:10:01.343Z,99.99
2018-06-08T10:11:01.939Z,99.99
2018-06-08T10:12:02.565Z,99.99
2018-06-08T10:13:03.198Z,99.99
2018-06-08T10:14:03.758Z,99.99
2018-06-08T10:15:04.329Z,99.99
2018-06-08T10:16:04.914Z,99.99
2018-06-08T10:17:05.471Z,99.99
2018-06-08T10:18:06.030Z,99.99
2018-06-08T10:19:06.593Z,99.99
2018-06-08T10:20:07.147Z,99.99
2018-06-08T10:21:07.712Z,99.99
2018-06-08T10:22:08.290Z,99.99
2018-06-08T10:23:08.885Z,99.99
2018-06-08T10:24:09.465Z,99.99
2018-06-08T10:25:10.042Z,99.99
2018-06-08T10:26:10.600Z,99.99
2018-06-08T10:27:11.153Z,99.99
2018-06-08T10:28:11.772Z,99.99
2018-06-08T10:29:12.313Z,99.99
2018-06-08T10:30:12.869Z,99.99
2018-06-08T10:31:13.430Z,99.99
2018-06-08T10:32:13.995Z,99.99
2018-06-08T10:33:14.552Z,99.99
2018-06-08T10:34:15.105Z,99.99
2018-06-08T10:35:15.665Z,99.99
2018-06-08T10:36:16.228Z,99.99
2018-06-08T10:37:16.796Z,99.99
2018-06-08T10:38:17.362Z,99.99
2018-06-08T10:39:17.913Z,99.99
2018-06-08T10:40:18.470Z,99.99
2018-06-08T10:41:19.024Z,99.99
2018-06-08T10:42:19.583Z,99.99
2018-06-08T10:43:20.147Z,99.99
2018-06-08T10:44:20.708Z,99.99
2018-06-08T10:45:21.268Z,99.99
2018-06-08T10:46:21.824Z,99.99
2018-06-08T10:47:22.385Z,99.99
2018-06-08T10:48:22.943Z,99.99
2018-06-08T10:49:23.514Z,99.99
2018-06-08T10:50:24.084Z,99.99
2018-06-08T10:51:24.647Z,99.99
2018-06-08T10:52:25.203Z,99.99
2018-06-08T10:53:25.755Z,99.99
2018-06-08T10:54:26.313Z,99.99
2018-06-08T10:55:26.876Z,99.99
2018-06-08T10:56:27.431Z,99.99
2018-06-08T10:57:27.991Z,99.99
2018-06-08T10:58:28.552Z,99.99
2018-06-08T10:59:29.107Z,99.99
2018-06-08T11:00:29.667Z,99.99
2018-06-08T11:01:30.231Z,99.99
2018-06-08T11:02:30.788Z,99.99
2018-06-08T11:03:31.339Z,99.99
2018-06-08T11:04:31.905Z,99.99
2018-06-08T11:05:32.461Z,99.99
2018-06-08T11:06:33.020Z,99.99
2018-06-08T11:07:33.582Z,99.99
2018-06-08T11:08:34.143Z,99.99
2018-06-08T11:09:34.699Z,99.99
2018-06-08T11:10:35.257Z,99.99
2018-06-08T11:11:35.819Z,99.99
2018-06-08T11:12:36.384Z,99.99
2018-06-08T11:13:36.943Z,99.99
2018-06-08T11:14:37.493Z,99.99
2018-06-08T11:15:38.057Z,99.99
2018-06-08T11:16:38.618Z,99.99
2018-06-08T11:17:39.177Z,99.99
2018-06-08T11:18:39.740Z,99.99
2018-06-08T11:19:40.301Z,99.99
2018-06-08T11:20:40.860Z,99.99
2018-06-08T11:21:41.501Z,99.99
2018-06-08T11:22:41.971Z,99.99
2018-06-08T11:23:42.531Z,99.99
2018-06-08T11:24:43.102Z,99.99
2018-06-08T11:25:43.642Z,99.99
2018-06-08T11:26:44.206Z,99.99
2018-06-08T11:27:44.762Z,99.99
2018-06-08T11:28:45.324Z,99.99
2018-06-08T11:29:45.881Z,99.99
2018-06-08T11:30:46.438Z,99.99
2018-06-08T11:31:46.999Z,99.99
2018-06-08T11:32:47.550Z,99.99
2018-06-08T11:33:48.119Z,99.99
2018-06-08T11:34:48.679Z,99.99
2018-06-08T11:35:49.236Z,99.99
2018-06-08T11:36:49.795Z,99.99
2018-06-08T11:37:50.349Z,99.99
2018-06-08T11:38:50.905Z,99.99
2018-06-08T11:39:51.464Z,99.99
2018-06-08T11:40:52.042Z,99.99
2018-06-08T11:41:52.584Z,99.99
2018-06-08T11:42:53.145Z,99.99
2018-06-08T11:43:53.699Z,99.99
2018-06-08T11:44:54.259Z,99.99
2018-06-08T11:45:54.979Z,99.99
2018-06-08T11:46:55.484Z,99.99
2018-06-08T11:47:56.054Z,99.99
2018-06-08T11:48:56.610Z,99.99
2018-06-08T11:49:57.173Z,99.99
2018-06-08T11:50:57.740Z,99.99
2018-06-08T11:51:58.297Z,99.99
2018-06-08T11:52:58.861Z,99.99
2018-06-08T11:53:59.424Z,99.99
2018-06-08T11:54:59.984Z,99.99
2018-06-08T11:56:00.543Z,99.99
2018-06-08T11:57:01.106Z,99.99
2018-06-08T11:58:01.662Z,99.99
2018-06-08T11:59:02.220Z,99.99
2018-06-08T12:00:02.778Z,99.99
2018-06-08T12:01:03.332Z,99.99
2018-06-08T12:02:03.895Z,99.99
2018-06-08T12:03:04.454Z,99.99
2018-06-08T12:04:05.010Z,99.99
2018-06-08T12:05:05.569Z,99.99
2018-06-08T12:06:06.133Z,99.99
2018-06-08T12:07:06.702Z,99.99
2018-06-08T12:08:07.262Z,99.99
2018-06-08T12:09:07.887Z,99.99
2018-06-08T12:10:08.383Z,99.99
2018-06-08T12:11:08.941Z,99.99
2018-06-08T12:12:09.506Z,99.99
2018-06-08T12:13:10.080Z,99.99
2018-06-08T12:14:10.651Z,99.99
2018-06-08T12:15:11.220Z,99.99
2018-06-08T12:16:11.787Z,99.99
2018-06-08T12:17:12.371Z,99.99
2018-06-08T12:18:12.914Z,99.99
2018-06-08T12:19:13.479Z,99.99
2018-06-08T12:20:14.038Z,99.99
2018-06-08T12:21:14.605Z,99.99
2018-06-08T12:22:15.164Z,99.99
2018-06-08T12:23:15.734Z,99.99
2018-06-08T12:24:16.305Z,99.99
2018-06-08T12:25:16.871Z,99.99
2018-06-08T12:26:17.437Z,99.46
2018-06-08T12:27:18.005Z,99.99
2018-06-08T12:28:18.567Z,99.46
2018-06-08T12:29:19.136Z,99.60
2018-06-08T12:30:19.706Z,98.58
2018-06-08T12:31:20.268Z,98.58
2018-06-08T12:32:20.839Z,98.20
2018-06-08T12:33:21.404Z,97.13
2018-06-08T12:34:21.971Z,97.62
2018-06-08T12:35:22.533Z,98.35
2018-06-08T12:36:23.098Z,99.99
2018-06-08T12:37:23.661Z,99.99
2018-06-08T12:38:24.229Z,99.99
2018-06-08T12:39:24.801Z,99.99
2018-06-08T12:40:25.361Z,99.99
2018-06-08T12:41:25.927Z,99.99
2018-06-08T12:42:26.486Z,99.99
2018-06-08T12:43:27.056Z,99.99
2018-06-08T12:44:27.616Z,99.99
2018-06-08T12:45:28.182Z,99.99
2018-06-08T12:46:28.747Z,99.99
2018-06-08T12:47:29.315Z,98.10
2018-06-08T12:48:29.880Z,99.60
2018-06-08T12:49:30.452Z,99.46
2018-06-08T12:50:31.019Z,95.92
2018-06-08T12:51:31.588Z,97.81
2018-06-08T12:52:32.158Z,95.15
2018-06-08T12:53:32.719Z,93.30
2018-06-08T12:54:33.291Z,91.56
2018-06-08T12:55:33.868Z,88.31
2018-06-08T12:56:34.428Z,88.99
2018-06-08T12:57:34.998Z,88.55
2018-06-08T12:58:35.562Z,87.29
2018-06-08T12:59:36.125Z,87.54